createdAt,value
2022-11-08T00:02:23.077Z,9.65
2022-11-08T00:04:49.902Z,9.67
2022-11-08T00:07:16.468Z,9.62
2022-11-08T00:09:55.574Z,9.54
2022-11-08T00:12:22.158Z,9.59
2022-11-08T00:14:48.755Z,9.53
2022-11-08T00:17:15.336Z,9.55
2022-11-08T00:22:40.313Z,9.56
2022-11-08T00:25:06.885Z,9.55
2022-11-08T00:27:33.470Z,9.46
2022-11-08T00:30:05.295Z,9.43
2022-11-08T00:32:40.772Z,9.39
2022-11-08T00:35:07.408Z,9.44
2022-11-08T00:37:33.968Z,9.47
2022-11-08T00:48:24.480Z,9.29
2022-11-08T00:50:51.060Z,9.46
2022-11-08T00:53:17.476Z,9.45
2022-11-08T00:58:36.412Z,9.52
2022-11-08T01:01:03.060Z,9.52
2022-11-08T01:03:29.654Z,9.52
2022-11-08T01:08:47.945Z,9.50
2022-11-08T01:11:14.358Z,9.51
2022-11-08T01:16:30.554Z,9.42
2022-11-08T01:18:57.132Z,9.44
2022-11-08T01:21:31.863Z,9.45
2022-11-08T01:23:58.448Z,9.37
2022-11-08T01:26:24.882Z,9.21
2022-11-08T01:28:51.443Z,9.14
2022-11-08T01:31:18.016Z,9.12
2022-11-08T01:36:28.548Z,9.17
2022-11-08T01:38:55.127Z,9.22
2022-11-08T01:41:23.931Z,9.09
2022-11-08T01:46:29.941Z,8.92
2022-11-08T01:48:56.385Z,8.84
2022-11-08T01:59:48.059Z,8.72
2022-11-08T02:07:48.943Z,8.82
2022-11-08T02:10:15.515Z,8.71
2022-11-08T02:12:41.955Z,8.66
2022-11-08T02:15:08.543Z,8.76
2022-11-08T02:17:35.113Z,8.66
2022-11-08T02:22:56.022Z,8.46
2022-11-08T02:25:22.585Z,8.43
2022-11-08T02:27:49.174Z,8.45
2022-11-08T02:30:15.761Z,8.43
2022-11-08T02:32:42.232Z,8.46
2022-11-08T02:35:08.804Z,8.53
2022-11-08T02:40:20.000Z,8.54
2022-11-08T02:42:46.570Z,8.55
2022-11-08T02:45:13.180Z,8.55
2022-11-08T02:47:39.751Z,8.59
2022-11-08T02:50:06.311Z,8.47
2022-11-08T02:52:32.911Z,8.46
2022-11-08T02:54:59.376Z,8.41
2022-11-08T02:57:26.055Z,8.38
2022-11-08T03:02:36.687Z,8.47
2022-11-08T03:05:03.215Z,8.58
2022-11-08T03:10:13.687Z,8.56
2022-11-08T03:12:40.279Z,8.64
2022-11-08T03:15:06.859Z,8.60
2022-11-08T03:23:08.038Z,8.52
2022-11-08T03:25:34.445Z,8.47
2022-11-08T03:28:00.891Z,8.46
2022-11-08T03:30:27.469Z,8.42
2022-11-08T03:32:54.029Z,8.37
2022-11-08T03:35:20.453Z,8.33
2022-11-08T03:37:47.015Z,8.26
2022-11-08T03:45:54.139Z,8.24
2022-11-08T03:48:21.069Z,8.25
2022-11-08T03:50:47.597Z,8.27
2022-11-08T03:58:49.017Z,8.26
2022-11-08T04:01:15.651Z,8.35
2022-11-08T04:03:42.249Z,8.25
2022-11-08T04:08:59.039Z,8.23
2022-11-08T04:11:25.702Z,8.22
2022-11-08T04:16:36.608Z,8.09
2022-11-08T04:19:03.115Z,8.06
2022-11-08T04:29:46.965Z,7.99
2022-11-08T04:32:13.561Z,7.95
2022-11-08T04:37:32.819Z,7.94
2022-11-08T04:39:59.251Z,7.96
2022-11-08T04:42:25.829Z,8.01
2022-11-08T04:44:52.413Z,8.06
2022-11-08T04:47:18.904Z,8.07
2022-11-08T04:52:37.616Z,8.12
2022-11-08T04:55:04.210Z,8.15
2022-11-08T04:57:30.657Z,8.16
2022-11-08T04:59:57.259Z,8.21
2022-11-08T05:02:23.772Z,8.20
2022-11-08T05:04:50.275Z,8.22
2022-11-08T05:07:16.766Z,8.18
2022-11-08T05:09:43.359Z,8.18
2022-11-08T05:12:09.931Z,8.04
2022-11-08T05:14:47.341Z,7.94
2022-11-08T05:17:13.936Z,8.04
2022-11-08T05:19:40.502Z,8.08
2022-11-08T05:24:57.113Z,8.19
2022-11-08T05:27:23.689Z,8.16
2022-11-08T05:29:50.267Z,8.19
2022-11-08T05:32:16.700Z,8.05
2022-11-08T05:34:43.162Z,8.06
2022-11-08T05:37:09.586Z,8.19
2022-11-08T05:42:20.181Z,8.29
2022-11-08T05:44:46.906Z,8.21
2022-11-08T05:47:13.681Z,8.19
2022-11-08T05:49:40.112Z,8.02
2022-11-08T05:52:06.769Z,7.97
2022-11-08T05:54:33.223Z,7.96
2022-11-08T05:56:59.738Z,7.96
2022-11-08T05:59:26.222Z,7.93
2022-11-08T06:01:52.928Z,7.93
2022-11-08T06:04:19.395Z,7.91
2022-11-08T06:06:46.017Z,7.96
2022-11-08T06:09:12.619Z,8.04
2022-11-08T06:11:39.184Z,8.17
2022-11-08T06:14:05.653Z,8.10
2022-11-08T06:19:16.104Z,8.04
2022-11-08T06:21:42.675Z,8.07
2022-11-08T06:26:59.736Z,8.11
2022-11-08T06:29:26.441Z,8.02
2022-11-08T06:31:53.022Z,7.95
2022-11-08T06:34:19.459Z,8.01
2022-11-08T06:36:46.100Z,8.10
2022-11-08T06:39:12.537Z,8.15
2022-11-08T06:41:39.094Z,8.18
2022-11-08T06:46:56.254Z,8.32
2022-11-08T06:49:22.849Z,8.13
2022-11-08T06:51:49.442Z,8.18
2022-11-08T06:54:17.902Z,8.16
2022-11-08T07:02:26.370Z,8.36
2022-11-08T07:07:42.749Z,8.40
2022-11-08T07:10:11.604Z,8.49
2022-11-08T07:12:38.295Z,8.62
2022-11-08T07:15:04.865Z,8.67
2022-11-08T07:17:35.800Z,8.69
2022-11-08T07:20:08.466Z,8.72
2022-11-08T07:25:28.098Z,8.80
2022-11-08T07:27:54.513Z,8.84
2022-11-08T07:30:21.109Z,9.04
2022-11-08T07:32:47.709Z,9.04
2022-11-08T10:09:10.697Z,11.38
2022-11-08T10:17:01.907Z,12.08
2022-11-08T10:19:28.310Z,12.33
2022-11-08T10:21:54.701Z,12.46
2022-11-08T10:24:21.102Z,12.49
2022-11-08T10:26:47.481Z,12.63
2022-11-08T10:29:13.861Z,12.67
2022-11-08T10:31:40.279Z,12.80
2022-11-08T10:34:06.761Z,12.94
2022-11-08T10:36:33.124Z,13.07
2022-11-08T10:38:59.500Z,13.10
2022-11-08T10:41:25.895Z,13.27
2022-11-08T10:43:52.276Z,13.25
2022-11-08T10:46:18.645Z,13.34
2022-11-08T10:48:45.028Z,13.36
2022-11-08T10:51:11.414Z,13.50
2022-11-08T10:53:37.788Z,13.62
2022-11-08T10:56:04.186Z,13.74
2022-11-08T10:58:30.585Z,13.78
2022-11-08T11:00:56.977Z,13.81
2022-11-08T11:03:23.383Z,13.79
2022-11-08T11:05:49.757Z,13.91
2022-11-08T11:08:16.364Z,14.03
2022-11-08T11:10:43.018Z,14.03
2022-11-08T11:13:09.388Z,14.15
2022-11-08T11:15:35.767Z,14.18
2022-11-08T11:18:02.155Z,14.17
2022-11-08T11:20:28.539Z,14.25
2022-11-08T11:22:54.956Z,14.26
2022-11-08T11:25:21.336Z,14.37
2022-11-08T11:27:47.733Z,14.42
2022-11-08T11:30:14.195Z,14.50
2022-11-08T11:32:40.573Z,14.55
2022-11-08T11:35:06.940Z,14.74
2022-11-08T11:37:33.350Z,14.70
2022-11-08T11:39:59.795Z,14.69
2022-11-08T11:45:12.530Z,14.84
2022-11-08T11:47:38.927Z,14.95
2022-11-08T11:50:05.289Z,14.96
2022-11-08T11:52:31.665Z,14.99
2022-11-08T11:54:58.041Z,15.04
2022-11-08T11:57:24.413Z,15.09
2022-11-08T11:59:50.783Z,15.19
2022-11-08T12:02:17.211Z,15.17
2022-11-08T12:04:43.616Z,15.21
2022-11-08T12:07:10.056Z,15.32
2022-11-08T12:09:36.446Z,15.37
2022-11-08T12:12:02.833Z,15.46
2022-11-08T12:14:29.227Z,15.39
2022-11-08T12:16:55.590Z,15.48
2022-11-08T12:19:21.960Z,15.51
2022-11-08T12:21:48.349Z,15.52
2022-11-08T12:24:14.744Z,15.57
2022-11-08T12:26:41.120Z,15.68
2022-11-08T12:29:07.498Z,15.70
2022-11-08T12:31:33.875Z,15.86
2022-11-08T12:34:00.267Z,15.87
2022-11-08T12:36:26.751Z,15.91
2022-11-08T12:38:53.148Z,15.95
2022-11-08T12:41:19.505Z,16.10
2022-11-08T12:43:45.885Z,16.12
2022-11-08T12:46:12.270Z,16.12
2022-11-08T12:48:39.298Z,15.97
2022-11-08T12:51:05.808Z,16.01
2022-11-08T12:56:16.232Z,16.24
2022-11-08T12:58:42.612Z,16.19
2022-11-08T13:01:09.058Z,16.31
2022-11-08T13:03:35.536Z,16.30
2022-11-08T13:06:01.928Z,16.30
2022-11-08T13:08:32.018Z,16.39
2022-11-08T13:10:58.386Z,16.29
2022-11-08T13:13:24.757Z,16.13
2022-11-08T13:15:51.132Z,16.24
2022-11-08T13:18:17.864Z,16.31
2022-11-08T13:20:44.400Z,16.42
2022-11-08T13:23:10.770Z,16.40
2022-11-08T13:25:37.247Z,16.50
2022-11-08T13:30:47.454Z,16.57
2022-11-08T13:33:13.847Z,16.63
2022-11-08T13:35:40.220Z,16.73
2022-11-08T13:38:06.606Z,16.80
2022-11-08T13:40:32.971Z,16.74
2022-11-08T13:42:59.346Z,16.67
2022-11-08T13:45:25.740Z,16.68
2022-11-08T13:47:52.116Z,16.74
2022-11-08T13:50:18.480Z,16.77
2022-11-08T13:52:44.861Z,16.83
2022-11-08T13:55:11.240Z,16.98
2022-11-08T13:57:37.621Z,16.97
2022-11-08T14:00:03.996Z,17.01
2022-11-08T14:02:30.384Z,16.97
2022-11-08T14:04:56.764Z,17.06
2022-11-08T14:07:25.451Z,17.09
2022-11-08T14:09:52.106Z,17.08
2022-11-08T14:12:18.508Z,17.11
2022-11-08T14:14:44.875Z,17.19
2022-11-08T14:17:11.273Z,17.28
2022-11-08T14:19:37.659Z,17.34
2022-11-08T14:22:04.023Z,17.25
2022-11-08T14:24:30.409Z,17.28
2022-11-08T14:26:56.786Z,17.29
2022-11-08T14:29:23.154Z,17.40
2022-11-08T14:31:49.525Z,17.44
2022-11-08T14:34:15.916Z,17.48
2022-11-08T14:36:45.067Z,17.57
2022-11-08T14:39:11.758Z,17.51
2022-11-08T14:41:38.243Z,17.52
2022-11-08T14:44:04.620Z,17.50
2022-11-08T14:46:30.993Z,17.47
2022-11-08T14:48:57.365Z,17.42
2022-11-08T14:51:23.726Z,17.40
2022-11-08T14:53:50.097Z,17.35
2022-11-08T14:56:16.458Z,17.22
2022-11-08T14:58:42.837Z,17.15
2022-11-08T15:01:09.279Z,17.16
2022-11-08T15:03:35.715Z,17.21
2022-11-08T15:06:02.106Z,17.12
2022-11-08T15:08:28.477Z,17.06
2022-11-08T15:10:54.991Z,17.14
2022-11-08T15:13:21.396Z,17.18
2022-11-08T15:15:47.761Z,17.13
2022-11-08T15:18:14.133Z,17.09
2022-11-08T15:20:40.516Z,17.08
2022-11-08T15:23:06.888Z,17.20
2022-11-08T15:25:33.267Z,17.20
2022-11-08T15:27:59.646Z,17.26
2022-11-08T15:30:26.117Z,17.33
2022-11-08T15:32:52.525Z,17.28
2022-11-08T15:35:18.908Z,17.21
2022-11-08T15:37:48.780Z,17.19
2022-11-08T15:40:15.434Z,17.12
2022-11-08T16:10:13.012Z,16.18
2022-11-08T16:12:39.420Z,16.29
2022-11-08T16:15:05.789Z,16.13
2022-11-08T16:17:32.191Z,16.17
2022-11-08T16:19:58.574Z,16.26
2022-11-08T16:25:15.752Z,16.08
2022-11-08T16:27:42.141Z,16.13
2022-11-08T16:30:08.523Z,15.88
2022-11-08T16:32:34.952Z,15.73
2022-11-08T16:35:01.331Z,15.62
2022-11-08T16:37:27.755Z,15.67
2022-11-08T16:39:54.321Z,15.64
2022-11-08T16:42:20.713Z,15.70
2022-11-08T16:44:47.255Z,15.73
2022-11-08T16:47:13.649Z,15.82
2022-11-08T16:49:40.113Z,15.86
2022-11-08T16:52:06.488Z,15.85
2022-11-08T16:54:32.854Z,15.83
2022-11-08T16:57:33.587Z,15.87
2022-11-08T16:59:45.852Z,15.86
2022-11-08T17:02:12.354Z,15.84
2022-11-08T17:04:38.766Z,15.83
2022-11-08T17:07:08.856Z,15.83
2022-11-08T17:09:37.899Z,15.78
2022-11-08T17:12:04.305Z,15.79
2022-11-08T17:14:30.782Z,15.76
2022-11-08T17:16:57.167Z,15.81
2022-11-08T17:19:23.544Z,15.87
2022-11-08T17:21:49.931Z,15.86
2022-11-08T17:24:21.594Z,15.83
2022-11-08T17:26:48.569Z,15.90
2022-11-08T17:29:14.978Z,15.87
2022-11-08T17:31:41.352Z,15.90
2022-11-08T17:34:07.749Z,15.90
2022-11-08T17:36:34.338Z,15.89
2022-11-08T17:39:00.717Z,15.88
2022-11-08T17:41:27.135Z,15.97
2022-11-08T17:43:53.526Z,15.96
2022-11-08T17:46:19.919Z,16.00
2022-11-08T17:48:46.320Z,15.97
2022-11-08T17:59:39.062Z,15.99
2022-11-08T18:02:05.487Z,15.97
2022-11-08T18:04:31.944Z,15.98
2022-11-08T18:09:56.553Z,15.97
2022-11-08T18:12:22.935Z,16.01
2022-11-08T18:14:49.316Z,15.99
2022-11-08T18:17:15.682Z,15.91
2022-11-08T18:19:42.064Z,15.81
2022-11-08T18:22:08.428Z,15.65
2022-11-08T18:24:34.821Z,15.54
2022-11-08T18:27:01.191Z,15.47
2022-11-08T18:29:27.566Z,15.48
2022-11-08T18:31:53.962Z,15.35
2022-11-08T18:34:20.412Z,15.20
2022-11-08T18:36:46.796Z,15.03
2022-11-08T18:39:18.085Z,15.04
2022-11-08T18:41:45.729Z,15.09
2022-11-08T18:44:12.122Z,15.16
2022-11-08T18:52:12.848Z,15.43
2022-11-08T18:54:39.232Z,15.51
2022-11-08T19:00:00.679Z,15.49
2022-11-08T19:02:27.530Z,15.23
2022-11-08T19:04:53.916Z,15.13
2022-11-08T19:07:20.394Z,15.04
2022-11-08T19:09:47.245Z,15.12
2022-11-08T19:12:13.629Z,15.18
2022-11-08T19:14:40.028Z,15.27
2022-11-08T19:17:06.419Z,15.31
2022-11-08T19:19:32.805Z,15.38
2022-11-08T19:21:59.211Z,15.47
2022-11-08T19:24:25.607Z,15.50
2022-11-08T19:26:53.000Z,15.59
2022-11-08T19:29:19.376Z,15.56
2022-11-08T19:31:45.749Z,15.58
2022-11-08T19:34:12.133Z,15.59
2022-11-08T19:36:38.515Z,15.59
2022-11-08T19:44:45.013Z,15.56
2022-11-08T19:47:11.374Z,15.64
2022-11-08T19:49:37.742Z,15.58
2022-11-08T19:54:54.921Z,15.28
2022-11-08T19:57:21.320Z,15.23
2022-11-08T20:02:31.739Z,15.08
2022-11-08T20:04:58.113Z,15.01
2022-11-08T20:10:15.008Z,14.85
2022-11-08T20:12:41.434Z,14.80
2022-11-08T20:15:08.681Z,14.74
2022-11-08T20:17:35.065Z,14.72
2022-11-08T20:20:01.446Z,14.70
2022-11-08T20:22:27.815Z,14.67
2022-11-08T20:27:45.086Z,14.51
2022-11-08T20:30:11.481Z,14.43
2022-11-08T20:32:37.848Z,14.40
2022-11-08T20:37:48.405Z,14.38
2022-11-08T20:43:04.830Z,14.26
2022-11-08T20:45:34.675Z,14.24
2022-11-08T20:48:02.637Z,14.32
2022-11-08T20:56:10.005Z,14.54
2022-11-08T20:58:36.402Z,14.50
2022-11-08T21:01:04.666Z,14.41
2022-11-08T21:03:31.033Z,14.38
2022-11-08T21:05:57.424Z,14.28
2022-11-08T21:14:03.983Z,14.15
2022-11-08T21:21:54.229Z,13.84
2022-11-08T21:24:20.627Z,13.80
2022-11-08T21:32:35.481Z,13.68
2022-11-08T21:35:01.860Z,13.66
2022-11-08T21:37:28.242Z,13.63
2022-11-08T21:39:54.664Z,13.60
2022-11-08T21:42:21.036Z,13.54
2022-11-08T21:53:11.398Z,13.14
2022-11-08T21:55:37.795Z,13.02
2022-11-08T22:06:28.626Z,12.74
2022-11-08T22:08:55.092Z,12.77
2022-11-08T22:16:55.999Z,12.91
2022-11-08T22:25:02.737Z,12.90
2022-11-08T22:30:19.565Z,12.88
2022-11-08T22:32:45.960Z,12.91
2022-11-08T22:35:12.353Z,12.86
2022-11-08T22:37:38.835Z,12.95
2022-11-08T22:42:45.430Z,13.03
2022-11-08T22:45:11.816Z,13.19
2022-11-08T22:56:11.312Z,13.15
2022-11-08T22:58:38.181Z,13.13
2022-11-08T23:01:04.570Z,13.06
2022-11-08T23:03:30.933Z,13.11
2022-11-08T23:06:03.585Z,13.17
2022-11-08T23:08:29.965Z,13.24
2022-11-08T23:10:56.326Z,13.14
2022-11-08T23:13:22.698Z,13.20
2022-11-08T23:15:49.065Z,13.20
2022-11-08T23:18:15.457Z,13.20
2022-11-08T23:20:41.825Z,13.18
2022-11-08T23:23:08.194Z,13.15
2022-11-08T23:25:34.565Z,13.13
2022-11-08T23:39:14.782Z,13.15
2022-11-08T23:41:41.143Z,13.19
2022-11-08T23:46:57.652Z,13.18
2022-11-08T23:49:24.026Z,13.15
2022-11-08T23:51:50.404Z,13.13
2022-11-08T23:54:16.794Z,13.15
2022-11-08T23:56:43.210Z,13.23
